createdAt,value
2022-08-29T00:01:15.308Z,97389.06
2022-08-29T00:03:18.442Z,97391.72
2022-08-29T00:05:24.971Z,97391.81
2022-08-29T00:07:27.895Z,97394.69
2022-08-29T00:09:30.587Z,97395.41
2022-08-29T00:11:34.681Z,97388.53
2022-08-29T00:13:37.298Z,97389.75
2022-08-29T00:15:44.705Z,97394.28
2022-08-29T00:17:48.490Z,97391.75
2022-08-29T00:19:51.047Z,97389.00
2022-08-29T00:21:54.036Z,97397.28
2022-08-29T00:23:56.642Z,97388.50
2022-08-29T00:25:59.254Z,97387.00
2022-08-29T00:28:03.311Z,97395.06
2022-08-29T00:30:07.508Z,97390.50
2022-08-29T00:32:10.255Z,97392.75
2022-08-29T00:34:12.948Z,97387.69
2022-08-29T00:36:15.523Z,97394.88
2022-08-29T00:38:19.196Z,97392.34
2022-08-29T00:40:28.787Z,97402.19
2022-08-29T00:42:31.524Z,97402.38
2022-08-29T00:44:35.807Z,97404.72
2022-08-29T00:46:47.797Z,97404.31
2022-08-29T00:48:56.123Z,97400.91
2022-08-29T00:51:04.347Z,97401.13
2022-08-29T00:53:10.235Z,97404.69
2022-08-29T00:55:15.897Z,97401.31
2022-08-29T00:57:20.692Z,97396.03
2022-08-29T00:59:27.748Z,97399.31
2022-08-29T01:01:31.858Z,97401.31
2022-08-29T01:03:36.896Z,97401.66
2022-08-29T01:05:46.248Z,97401.03
2022-08-29T01:07:49.490Z,97400.28
2022-08-29T01:09:52.944Z,97409.81
2022-08-29T01:12:13.432Z,97406.19
2022-08-29T01:14:15.409Z,97409.16
2022-08-29T01:16:20.569Z,97405.78
2022-08-29T01:18:30.267Z,97405.16
2022-08-29T01:20:40.351Z,97412.34
2022-08-29T01:22:56.769Z,97404.84
2022-08-29T01:25:01.213Z,97405.78
2022-08-29T01:27:04.122Z,97406.63
2022-08-29T01:29:06.704Z,97405.78
2022-08-29T01:31:12.856Z,97406.75
2022-08-29T01:33:15.459Z,97404.31
2022-08-29T01:35:18.114Z,97407.16
2022-08-29T01:37:21.437Z,97403.16
2022-08-29T01:39:27.027Z,97410.13
2022-08-29T01:41:32.879Z,97404.72
2022-08-29T01:43:41.617Z,97402.53
2022-08-29T01:45:43.299Z,97403.34
2022-08-29T01:47:45.918Z,97411.28
2022-08-29T01:49:48.661Z,97415.91
2022-08-29T01:51:51.700Z,97404.72
2022-08-29T01:53:54.615Z,97407.47
2022-08-29T01:55:57.164Z,97399.34
2022-08-29T01:58:01.114Z,97407.91
2022-08-29T02:00:05.593Z,97416.56
2022-08-29T02:02:15.515Z,97411.81
2022-08-29T02:04:18.619Z,97408.53
2022-08-29T02:06:21.461Z,97406.84
2022-08-29T02:08:24.061Z,97413.91
2022-08-29T02:10:26.814Z,97412.00
2022-08-29T02:12:31.661Z,97408.53
2022-08-29T02:14:36.221Z,97414.13
2022-08-29T02:16:38.906Z,97416.75
2022-08-29T02:18:42.375Z,97414.13
2022-08-29T02:20:45.099Z,97411.88
2022-08-29T02:22:47.769Z,97409.34
2022-08-29T02:24:50.339Z,97411.78
2022-08-29T02:26:53.713Z,97405.75
2022-08-29T02:28:57.465Z,97411.88
2022-08-29T02:31:01.683Z,97410.31
2022-08-29T02:33:04.945Z,97411.25
2022-08-29T02:35:09.124Z,97407.97
2022-08-29T02:37:15.141Z,97411.56
2022-08-29T02:39:19.341Z,97409.94
2022-08-29T02:41:21.988Z,97411.00
2022-08-29T02:43:25.543Z,97407.72
2022-08-29T02:45:28.818Z,97400.94
2022-08-29T02:47:33.795Z,97397.13
2022-08-29T02:49:36.374Z,97398.25
2022-08-29T02:51:38.971Z,97393.63
2022-08-29T02:53:41.550Z,97398.19
2022-08-29T02:55:47.996Z,97398.50
2022-08-29T02:57:52.103Z,97406.97
2022-08-29T02:59:54.697Z,97399.78
2022-08-29T03:01:57.415Z,97401.69
2022-08-29T03:04:02.194Z,97397.97
2022-08-29T03:06:05.328Z,97399.78
2022-08-29T03:08:10.529Z,97392.63
2022-08-29T03:10:13.387Z,97395.97
2022-08-29T03:12:15.998Z,97398.72
2022-08-29T03:14:18.547Z,97397.16
2022-08-29T03:16:21.184Z,97400.72
2022-08-29T03:18:24.226Z,97394.50
2022-08-29T03:20:28.198Z,97398.94
2022-08-29T03:22:30.797Z,97398.28
2022-08-29T03:24:35.507Z,97393.03
2022-08-29T03:26:38.247Z,97389.63
2022-08-29T03:28:40.873Z,97393.34
2022-08-29T03:30:43.485Z,97404.63
2022-08-29T03:32:47.044Z,97403.78
2022-08-29T03:34:49.621Z,97402.06
2022-08-29T03:36:53.576Z,97399.44
2022-08-29T03:38:56.201Z,97398.72
2022-08-29T03:40:58.776Z,97400.72
2022-08-29T03:43:03.263Z,97400.16
2022-08-29T03:45:08.459Z,97409.13
2022-08-29T03:47:11.348Z,97403.84
2022-08-29T03:49:15.569Z,97404.97
2022-08-29T03:51:18.878Z,97414.69
2022-08-29T03:53:22.934Z,97411.22
2022-08-29T03:55:25.706Z,97403.41
2022-08-29T03:57:33.083Z,97402.75
2022-08-29T03:59:36.555Z,97413.41
2022-08-29T04:01:39.336Z,97408.31
2022-08-29T04:03:41.940Z,97409.47
2022-08-29T04:05:44.526Z,97402.59
2022-08-29T04:07:51.046Z,97416.72
2022-08-29T04:09:54.981Z,97410.91
2022-08-29T04:11:57.627Z,97416.19
2022-08-29T04:14:00.323Z,97410.38
2022-08-29T04:16:02.993Z,97416.56
2022-08-29T04:18:08.177Z,97420.38
2022-08-29T04:20:12.665Z,97425.81
2022-08-29T04:22:15.304Z,97420.63
2022-08-29T04:24:19.572Z,97422.44
2022-08-29T04:26:38.957Z,97426.88
2022-08-29T04:28:41.667Z,97433.91
2022-08-29T04:30:51.857Z,97429.78
2022-08-29T04:32:55.771Z,97430.72
2022-08-29T04:34:58.840Z,97430.72
2022-08-29T04:37:01.549Z,97429.03
2022-08-29T04:39:05.890Z,97425.56
2022-08-29T04:41:08.630Z,97434.97
2022-08-29T04:43:12.886Z,97436.94
2022-08-29T04:45:17.899Z,97438.06
2022-08-29T04:47:22.196Z,97438.19
2022-08-29T04:49:24.801Z,97438.94
2022-08-29T04:51:27.740Z,97436.41
2022-08-29T04:53:30.940Z,97438.44
2022-08-29T04:55:33.527Z,97434.22
2022-08-29T04:57:37.084Z,97431.50
2022-08-29T04:59:41.038Z,97438.66
2022-08-29T05:01:44.492Z,97437.53
2022-08-29T05:03:49.551Z,97439.09
2022-08-29T05:05:57.613Z,97440.06
2022-08-29T05:08:00.232Z,97443.56
2022-08-29T05:10:07.430Z,97440.16
2022-08-29T05:12:10.468Z,97438.53
2022-08-29T05:14:13.032Z,97444.66
2022-08-29T05:16:18.573Z,97439.19
2022-08-29T05:18:21.477Z,97443.34
2022-08-29T05:20:24.071Z,97445.88
2022-08-29T05:22:26.805Z,97446.75
2022-08-29T05:24:31.409Z,97450.28
2022-08-29T05:26:36.585Z,97446.09
2022-08-29T05:28:39.178Z,97451.16
2022-08-29T05:30:45.018Z,97451.06
2022-08-29T05:32:49.031Z,97451.81
2022-08-29T05:34:51.707Z,97455.00
2022-08-29T05:36:54.416Z,97454.78
2022-08-29T05:38:56.999Z,97458.19
2022-08-29T05:41:00.096Z,97451.88
2022-08-29T05:43:02.842Z,97465.25
2022-08-29T05:45:06.223Z,97464.00
2022-08-29T05:47:11.379Z,97461.22
2022-08-29T05:49:15.264Z,97463.75
2022-08-29T05:51:19.030Z,97469.66
2022-08-29T05:53:21.810Z,97468.59
2022-08-29T05:55:25.436Z,97468.41
2022-08-29T05:57:28.140Z,97462.09
2022-08-29T05:59:30.871Z,97471.69
2022-08-29T06:01:34.532Z,97471.41
2022-08-29T06:03:37.227Z,97470.38
2022-08-29T06:05:42.437Z,97478.81
2022-08-29T06:07:45.052Z,97477.78
2022-08-29T06:09:47.680Z,97481.19
2022-08-29T06:11:53.169Z,97482.88
2022-08-29T06:13:56.999Z,97475.69
2022-08-29T06:15:59.653Z,97472.03
2022-08-29T06:18:02.359Z,97483.19
2022-08-29T06:20:09.770Z,97477.84
2022-08-29T06:22:13.686Z,97477.66
2022-08-29T06:24:17.329Z,97476.59
2022-08-29T06:26:20.664Z,97485.47
2022-08-29T06:28:24.058Z,97485.50
2022-08-29T06:30:27.142Z,97495.66
2022-08-29T06:32:29.932Z,97495.94
2022-08-29T06:34:32.555Z,97498.59
2022-08-29T06:36:36.898Z,97493.47
2022-08-29T06:38:41.195Z,97497.78
2022-08-29T06:40:43.799Z,97486.09
2022-08-29T06:42:46.475Z,97494.94
2022-08-29T06:44:49.049Z,97488.31
2022-08-29T06:46:51.660Z,97495.31
2022-08-29T06:48:56.033Z,97495.53
2022-08-29T06:51:01.102Z,97490.81
2022-08-29T06:53:26.528Z,97494.00
2022-08-29T06:55:28.021Z,97498.88
2022-08-29T06:57:30.796Z,97497.78
2022-08-29T06:59:33.565Z,97501.91
2022-08-29T07:01:36.579Z,97498.88
2022-08-29T07:03:39.716Z,97501.41
2022-08-29T07:05:42.408Z,97508.03
2022-08-29T07:07:46.726Z,97506.78
2022-08-29T07:09:51.256Z,97499.41
2022-08-29T07:11:55.289Z,97511.34
2022-08-29T07:13:59.230Z,97506.72
2022-08-29T07:16:04.570Z,97502.09
2022-08-29T07:18:07.206Z,97507.03
2022-08-29T07:20:14.005Z,97503.38
2022-08-29T07:22:16.568Z,97498.19
2022-08-29T07:24:24.239Z,97509.50
2022-08-29T07:26:30.580Z,97500.53
2022-08-29T07:28:34.964Z,97498.72
2022-08-29T07:30:40.521Z,97503.81
2022-08-29T07:32:45.238Z,97501.69
2022-08-29T07:34:47.804Z,97505.28
2022-08-29T07:36:50.396Z,97501.59
2022-08-29T07:38:53.022Z,97499.59
2022-08-29T07:40:59.469Z,97496.00
2022-08-29T07:43:02.189Z,97494.94
2022-08-29T07:45:09.436Z,97490.19
2022-08-29T07:47:12.062Z,97500.66
2022-08-29T07:49:15.260Z,97492.53
2022-08-29T07:51:20.125Z,97491.34
2022-08-29T07:53:22.742Z,97495.72
2022-08-29T07:55:25.452Z,97491.06
2022-08-29T07:57:28.785Z,97497.72
2022-08-29T07:59:31.735Z,97495.69
2022-08-29T08:01:36.076Z,97482.28
2022-08-29T08:03:39.008Z,97488.22
2022-08-29T08:05:41.571Z,97485.28
2022-08-29T08:07:44.175Z,97494.69
2022-08-29T08:09:49.915Z,97495.31
2022-08-29T08:11:52.497Z,97492.56
2022-08-29T08:13:56.056Z,97494.97
2022-08-29T08:15:58.789Z,97499.13
2022-08-29T08:18:02.745Z,97498.03
2022-08-29T08:20:07.598Z,97503.84
2022-08-29T08:22:10.156Z,97500.66
2022-08-29T08:24:16.118Z,97508.50
2022-08-29T08:26:22.415Z,97507.44
2022-08-29T08:28:25.103Z,97508.25
2022-08-29T08:30:27.770Z,97512.50
2022-08-29T08:32:32.493Z,97511.13
2022-08-29T08:34:36.817Z,97513.13
2022-08-29T08:36:41.443Z,97508.03
2022-08-29T08:38:44.424Z,97508.75
2022-08-29T08:40:50.578Z,97508.53
2022-08-29T08:43:00.331Z,97520.72
2022-08-29T08:45:10.395Z,97516.91
2022-08-29T08:47:15.681Z,97513.16
2022-08-29T08:49:23.763Z,97519.19
2022-08-29T08:51:31.774Z,97519.81
2022-08-29T08:53:39.561Z,97507.84
2022-08-29T08:55:44.420Z,97512.16
2022-08-29T08:57:55.731Z,97506.66
2022-08-29T08:59:59.686Z,97504.75
2022-08-29T09:02:09.973Z,97500.72
2022-08-29T09:04:42.268Z,97503.06
2022-08-29T09:07:00.352Z,97504.50
2022-08-29T09:09:18.381Z,97506.81
2022-08-29T09:11:29.780Z,97504.88
2022-08-29T09:13:43.675Z,97502.03
2022-08-29T09:15:48.343Z,97506.97
2022-08-29T09:17:53.728Z,97507.59
2022-08-29T09:19:58.296Z,97502.06
2022-08-29T09:22:12.017Z,97492.94
2022-08-29T09:24:24.410Z,97499.34
2022-08-29T09:26:28.314Z,97494.66
2022-08-29T09:28:31.270Z,97488.56
2022-08-29T09:30:36.375Z,97505.50
2022-08-29T09:33:01.613Z,97502.75
2022-08-29T09:35:19.617Z,97501.69
2022-08-29T09:37:27.047Z,97503.84
2022-08-29T09:39:32.061Z,97506.28
2022-08-29T09:41:34.730Z,97503.41
2022-08-29T09:43:48.119Z,97505.81
2022-08-29T09:46:16.266Z,97507.28
2022-08-29T09:48:18.996Z,97506.06
2022-08-29T09:50:25.319Z,97503.97
2022-08-29T09:52:29.221Z,97506.13
2022-08-29T09:54:32.192Z,97505.13
2022-08-29T09:56:38.273Z,97507.34
2022-08-29T09:58:42.684Z,97506.13
2022-08-29T10:01:01.320Z,97502.03
2022-08-29T10:03:07.595Z,97504.69
2022-08-29T10:05:26.695Z,97505.41
2022-08-29T10:07:32.992Z,97493.75
2022-08-29T10:09:40.219Z,97497.94
2022-08-29T10:11:54.274Z,97504.69
2022-08-29T10:14:05.064Z,97499.16
2022-08-29T10:16:17.369Z,97501.53
2022-08-29T10:18:32.559Z,97496.97
2022-08-29T10:20:50.047Z,97502.88
2022-08-29T10:23:00.518Z,97500.81
2022-08-29T10:25:09.798Z,97505.16
2022-08-29T10:27:24.956Z,97504.16
2022-08-29T10:29:54.673Z,97511.78
2022-08-29T10:32:10.463Z,97501.78
2022-08-29T10:34:32.823Z,97505.88
2022-08-29T10:36:39.747Z,97505.66
2022-08-29T10:38:49.271Z,97494.66
2022-08-29T10:40:58.524Z,97500.63
2022-08-29T10:43:30.058Z,97500.41
2022-08-29T10:45:40.996Z,97501.06
2022-08-29T10:47:52.198Z,97492.97
2022-08-29T10:50:10.109Z,97491.88
2022-08-29T10:52:28.388Z,97481.59
2022-08-29T10:54:37.745Z,97475.16
2022-08-29T10:56:44.121Z,97479.13
2022-08-29T10:58:57.413Z,97485.03
2022-08-29T11:01:11.915Z,97478.09
2022-08-29T11:03:26.609Z,97472.50
2022-08-29T11:05:43.817Z,97473.22
2022-08-29T11:07:51.535Z,97475.78
2022-08-29T11:10:00.198Z,97467.81
2022-08-29T11:12:08.769Z,97474.31
2022-08-29T11:14:21.501Z,97476.00
2022-08-29T11:16:30.388Z,97464.38
2022-08-29T11:18:43.232Z,97462.03
2022-08-29T11:20:50.186Z,97461.66
2022-08-29T11:22:57.268Z,97459.59
2022-08-29T11:25:07.652Z,97465.34
2022-08-29T11:27:18.494Z,97458.69
2022-08-29T11:29:31.111Z,97466.09
2022-08-29T11:31:46.051Z,97456.06
2022-08-29T11:33:56.499Z,97457.34
2022-08-29T11:36:25.933Z,97451.88
2022-08-29T11:38:47.519Z,97456.06
2022-08-29T11:41:27.159Z,97455.97
2022-08-29T11:43:36.204Z,97458.50
2022-08-29T11:45:41.424Z,97455.56
2022-08-29T11:48:00.075Z,97451.13
2022-08-29T11:50:08.952Z,97461.22
2022-08-29T11:52:21.876Z,97451.63
2022-08-29T11:54:49.964Z,97452.75
2022-08-29T11:57:37.485Z,97444.78
2022-08-29T11:59:59.445Z,97452.88
2022-08-29T12:02:02.322Z,97455.84
2022-08-29T12:04:06.247Z,97454.72
2022-08-29T12:06:18.707Z,97453.28
2022-08-29T12:08:37.399Z,97450.25
2022-08-29T12:10:52.445Z,97451.09
2022-08-29T12:12:57.489Z,97447.75
2022-08-29T12:15:01.424Z,97449.59
2022-08-29T12:17:06.694Z,97440.31
2022-08-29T12:19:09.350Z,97439.25
2022-08-29T12:21:45.561Z,97438.94
2022-08-29T12:23:48.289Z,97437.13
2022-08-29T12:28:37.102Z,97424.09
2022-08-29T12:30:44.970Z,97423.81
2022-08-29T12:32:58.543Z,97416.94
2022-08-29T12:35:30.542Z,97422.84
2022-08-29T12:37:50.707Z,97417.88
2022-08-29T12:40:33.205Z,97405.22
2022-08-29T12:42:47.313Z,97410.66
2022-08-29T12:45:00.465Z,97408.16
2022-08-29T12:47:08.431Z,97403.94
2022-08-29T12:49:21.003Z,97408.41
2022-08-29T12:51:37.164Z,97408.41
2022-08-29T12:53:39.770Z,97404.03
2022-08-29T12:55:44.965Z,97404.13
2022-08-29T12:57:48.539Z,97402.81
2022-08-29T12:59:53.357Z,97402.94
2022-08-29T13:01:58.396Z,97397.78
2022-08-29T13:04:06.824Z,97395.44
2022-08-29T13:06:14.561Z,97400.31
2022-08-29T13:08:28.693Z,97388.25
2022-08-29T13:10:31.300Z,97398.50
2022-08-29T13:12:36.852Z,97398.66
2022-08-29T13:14:56.532Z,97398.66
2022-08-29T13:16:59.368Z,97393.56
2022-08-29T13:19:11.745Z,97383.19
2022-08-29T13:21:23.195Z,97388.72
2022-08-29T13:23:28.848Z,97379.56
2022-08-29T13:25:32.420Z,97380.25
2022-08-29T13:27:35.009Z,97382.94
2022-08-29T13:29:39.866Z,97381.81
2022-08-29T13:31:42.630Z,97377.59
2022-08-29T13:34:19.349Z,97386.28
2022-08-29T13:36:33.245Z,97383.03
2022-08-29T13:38:35.845Z,97383.38
2022-08-29T13:40:46.019Z,97381.72
2022-08-29T13:42:48.708Z,97381.94
2022-08-29T13:45:22.626Z,97385.28
2022-08-29T13:47:28.696Z,97379.88
2022-08-29T13:49:34.969Z,97379.25
2022-08-29T13:51:37.535Z,97383.84
2022-08-29T13:53:40.243Z,97384.69
2022-08-29T13:55:48.288Z,97375.09
2022-08-29T13:57:54.617Z,97382.38
2022-08-29T13:59:58.525Z,97377.13
2022-08-29T14:02:10.046Z,97376.94
2022-08-29T14:04:36.773Z,97369.59
2022-08-29T14:06:37.794Z,97378.97
2022-08-29T14:08:45.184Z,97376.03
2022-08-29T14:10:48.067Z,97369.38
2022-08-29T14:15:13.261Z,97362.56
2022-08-29T14:17:18.690Z,97362.56
2022-08-29T14:19:21.715Z,97361.97
2022-08-29T14:21:24.652Z,97364.91
2022-08-29T14:23:28.600Z,97361.34
2022-08-29T14:25:32.473Z,97367.16
2022-08-29T14:27:35.541Z,97366.56
2022-08-29T14:29:38.399Z,97354.69
2022-08-29T14:31:41.156Z,97360.09
2022-08-29T14:33:43.727Z,97353.75
2022-08-29T14:35:47.720Z,97350.78
2022-08-29T14:37:50.495Z,97347.97
2022-08-29T14:39:54.442Z,97342.50
2022-08-29T14:41:57.097Z,97346.25
2022-08-29T14:43:59.980Z,97337.38
2022-08-29T14:46:02.605Z,97337.00
2022-08-29T14:48:06.383Z,97342.41
2022-08-29T14:50:09.627Z,97342.53
2022-08-29T14:52:14.895Z,97338.47
2022-08-29T14:54:18.086Z,97334.63
2022-08-29T14:56:47.053Z,97337.53
2022-08-29T14:58:48.074Z,97336.88
2022-08-29T15:00:51.369Z,97336.41
2022-08-29T15:02:57.160Z,97336.72
2022-08-29T15:04:59.760Z,97331.50
2022-08-29T15:07:02.609Z,97334.31
2022-08-29T15:09:05.479Z,97336.94
2022-08-29T15:11:08.113Z,97332.81
2022-08-29T15:13:12.094Z,97334.63
2022-08-29T15:15:14.985Z,97335.38
2022-08-29T15:17:18.056Z,97334.91
2022-08-29T15:21:44.613Z,97333.78
2022-08-29T15:23:48.913Z,97323.34
2022-08-29T15:25:51.744Z,97321.09
2022-08-29T15:27:54.845Z,97320.44
2022-08-29T15:29:59.261Z,97320.38
2022-08-29T15:32:02.158Z,97316.56
2022-08-29T15:34:05.931Z,97312.09
2022-08-29T15:36:09.396Z,97314.88
2022-08-29T15:38:12.092Z,97317.69
2022-08-29T15:40:15.727Z,97315.53
2022-08-29T15:42:18.444Z,97317.94
2022-08-29T15:44:21.072Z,97312.66
2022-08-29T15:46:26.913Z,97311.72
2022-08-29T15:48:29.557Z,97317.09
2022-08-29T15:50:32.146Z,97309.97
2022-08-29T15:52:35.455Z,97315.44
2022-08-29T15:54:38.166Z,97309.59
2022-08-29T15:56:40.857Z,97309.50
2022-08-29T15:58:43.865Z,97305.69
2022-08-29T16:00:50.287Z,97303.09
2022-08-29T16:02:54.562Z,97307.50
2022-08-29T16:04:57.753Z,97305.91
2022-08-29T16:07:00.472Z,97307.00
2022-08-29T16:09:03.953Z,97298.34
2022-08-29T16:11:18.238Z,97295.22
2022-08-29T16:13:21.150Z,97297.25
2022-08-29T16:15:23.887Z,97295.44
2022-08-29T16:17:26.534Z,97296.38
2022-08-29T16:19:30.546Z,97298.00
2022-08-29T16:21:34.645Z,97294.41
2022-08-29T16:23:37.260Z,97285.75
2022-08-29T16:25:44.209Z,97287.47
2022-08-29T16:27:47.047Z,97280.78
2022-08-29T16:29:49.624Z,97282.19
2022-08-29T16:31:52.640Z,97277.69
2022-08-29T16:33:55.335Z,97281.22
2022-08-29T16:36:01.098Z,97282.13
2022-08-29T16:38:03.828Z,97280.44
2022-08-29T16:40:07.968Z,97282.31
2022-08-29T16:42:12.185Z,97276.94
2022-08-29T16:44:14.808Z,97283.69
2022-08-29T16:46:18.343Z,97279.84
2022-08-29T16:48:21.124Z,97277.78
2022-08-29T16:50:23.955Z,97271.44
2022-08-29T16:52:28.176Z,97281.03
2022-08-29T16:54:33.121Z,97283.38
2022-08-29T16:56:35.987Z,97277.84
2022-08-29T16:58:56.378Z,97280.69
2022-08-29T17:00:59.126Z,97283.91
2022-08-29T17:03:01.869Z,97275.72
2022-08-29T17:05:04.900Z,97280.75
2022-08-29T17:07:07.896Z,97277.56
2022-08-29T17:09:10.747Z,97275.72
2022-08-29T17:11:12.368Z,97281.91
2022-08-29T17:13:13.987Z,97280.91
2022-08-29T17:15:15.551Z,97287.56
2022-08-29T17:17:18.282Z,97293.06
2022-08-29T17:19:21.991Z,97287.22
2022-08-29T17:21:25.819Z,97284.53
2022-08-29T17:23:29.617Z,97287.88
2022-08-29T17:25:33.780Z,97287.03
2022-08-29T17:27:36.793Z,97285.16
2022-08-29T17:29:41.965Z,97287.66
2022-08-29T17:31:44.584Z,97285.75
2022-08-29T17:33:48.095Z,97295.44
2022-08-29T17:35:50.872Z,97288.22
2022-08-29T17:37:54.081Z,97294.22
2022-08-29T17:39:57.025Z,97294.72
2022-08-29T17:42:01.304Z,97298.69
2022-08-29T17:44:06.763Z,97293.16
2022-08-29T17:46:09.786Z,97295.47
2022-08-29T17:48:12.677Z,97288.91
2022-08-29T17:50:16.244Z,97286.91
2022-08-29T17:52:19.148Z,97293.72
2022-08-29T17:54:23.769Z,97292.63
2022-08-29T17:56:30.310Z,97293.25
2022-08-29T17:58:35.396Z,97305.56
2022-08-29T18:00:38.040Z,97303.53
2022-08-29T18:02:41.738Z,97310.00
2022-08-29T18:04:46.777Z,97315.16
2022-08-29T18:06:51.754Z,97311.78
2022-08-29T18:08:54.353Z,97316.59
2022-08-29T18:10:57.044Z,97318.09
2022-08-29T18:12:59.892Z,97309.81
2022-08-29T18:15:06.062Z,97317.63
2022-08-29T18:17:08.870Z,97315.59
2022-08-29T18:19:13.526Z,97317.19
2022-08-29T18:21:18.614Z,97317.75
2022-08-29T18:23:21.288Z,97321.53
2022-08-29T18:25:24.002Z,97319.34
2022-08-29T18:27:28.005Z,97322.31
2022-08-29T18:29:30.562Z,97324.94
2022-08-29T18:31:34.485Z,97323.84
2022-08-29T18:33:57.179Z,97331.31
2022-08-29T18:36:00.010Z,97328.41
2022-08-29T18:38:02.625Z,97333.50
2022-08-29T18:40:08.331Z,97334.78
2022-08-29T18:42:30.438Z,97338.31
2022-08-29T18:44:33.703Z,97334.16
2022-08-29T18:46:40.877Z,97336.53
2022-08-29T18:48:44.816Z,97346.88
2022-08-29T18:50:48.487Z,97344.91
2022-08-29T18:52:51.106Z,97344.75
2022-08-29T18:54:54.255Z,97351.91
2022-08-29T18:56:56.959Z,97350.94
2022-08-29T18:58:59.804Z,97354.31
2022-08-29T19:01:11.373Z,97353.25
2022-08-29T19:03:15.581Z,97354.53
2022-08-29T19:05:18.888Z,97356.41
2022-08-29T19:07:24.475Z,97362.91
2022-08-29T19:09:27.136Z,97360.81
2022-08-29T19:11:29.823Z,97365.06
2022-08-29T19:13:32.524Z,97374.19
2022-08-29T19:15:41.265Z,97369.00
2022-08-29T19:17:44.230Z,97371.91
2022-08-29T19:20:10.017Z,97375.38
2022-08-29T19:22:13.453Z,97373.88
2022-08-29T19:24:16.065Z,97373.03
2022-08-29T19:26:21.532Z,97375.16
2022-08-29T19:28:24.269Z,97371.41
2022-08-29T19:30:27.775Z,97376.31
2022-08-29T19:32:30.348Z,97374.19
2022-08-29T19:34:32.978Z,97367.19
2022-08-29T19:36:39.093Z,97362.28
2022-08-29T19:38:42.338Z,97360.72
2022-08-29T19:40:45.770Z,97362.56
2022-08-29T19:42:49.717Z,97365.78
2022-08-29T19:44:52.364Z,97365.22
2022-08-29T19:46:55.213Z,97367.19
2022-08-29T19:48:57.895Z,97371.66
2022-08-29T19:51:00.677Z,97372.09
2022-08-29T19:53:05.316Z,97376.03
2022-08-29T19:55:10.918Z,97374.34
2022-08-29T19:57:14.705Z,97376.72
2022-08-29T19:59:18.130Z,97375.75
2022-08-29T20:01:21.433Z,97382.03
2022-08-29T20:03:24.214Z,97384.97
2022-08-29T20:05:27.105Z,97392.38
2022-08-29T20:07:30.535Z,97390.16
2022-08-29T20:09:35.966Z,97395.78
2022-08-29T20:11:42.886Z,97404.44
2022-08-29T20:13:50.612Z,97400.81
2022-08-29T20:15:54.098Z,97398.28
2022-08-29T20:17:57.370Z,97402.59
2022-08-29T20:20:00.555Z,97397.69
2022-08-29T20:22:03.288Z,97397.84
2022-08-29T20:24:07.261Z,97391.81
2022-08-29T20:26:12.771Z,97399.66
2022-08-29T20:28:15.893Z,97392.25
2022-08-29T20:30:24.947Z,97393.38
2022-08-29T20:32:27.558Z,97395.31
2022-08-29T20:34:30.575Z,97392.28
2022-08-29T20:36:50.875Z,97398.44
2022-08-29T20:38:53.445Z,97399.97
2022-08-29T20:40:56.030Z,97397.41
2022-08-29T20:43:00.250Z,97403.59
2022-08-29T20:45:02.879Z,97411.16
2022-08-29T20:47:06.928Z,97405.47
2022-08-29T20:49:10.503Z,97411.78
2022-08-29T20:51:13.248Z,97409.13
2022-08-29T20:53:32.565Z,97409.69
2022-08-29T20:55:36.560Z,97407.53
2022-08-29T20:57:40.340Z,97416.38
2022-08-29T20:59:44.842Z,97413.94
2022-08-29T21:01:47.950Z,97420.63
2022-08-29T21:04:08.113Z,97415.09
2022-08-29T21:06:12.076Z,97413.38
2022-08-29T21:08:17.635Z,97408.06
2022-08-29T21:10:20.611Z,97414.66
2022-08-29T21:12:27.651Z,97409.63
2022-08-29T21:14:30.304Z,97409.91
2022-08-29T21:16:36.233Z,97416.31
2022-08-29T21:18:39.399Z,97421.03
2022-08-29T21:20:53.924Z,97425.38
2022-08-29T21:22:58.586Z,97423.00
2022-08-29T21:25:01.195Z,97424.78
2022-08-29T21:27:03.845Z,97426.44
2022-08-29T21:29:08.254Z,97422.81
2022-08-29T21:31:13.268Z,97432.13
2022-08-29T21:33:17.387Z,97432.44
2022-08-29T21:35:20.632Z,97424.38
2022-08-29T21:37:24.560Z,97429.06
2022-08-29T21:39:28.943Z,97432.94
2022-08-29T21:41:32.362Z,97430.09
2022-08-29T21:43:35.072Z,97427.25
2022-08-29T21:45:37.681Z,97427.88
2022-08-29T21:47:40.342Z,97430.41
2022-08-29T21:49:44.249Z,97435.25
2022-08-29T21:51:48.272Z,97435.50
2022-08-29T21:53:52.913Z,97437.09
2022-08-29T21:55:55.492Z,97440.47
2022-08-29T21:57:59.715Z,97442.59
2022-08-29T22:00:02.345Z,97438.47
2022-08-29T22:02:05.263Z,97443.84
2022-08-29T22:04:09.994Z,97439.66
2022-08-29T22:06:15.078Z,97442.44
2022-08-29T22:08:17.734Z,97429.75
2022-08-29T22:10:24.424Z,97426.25
2022-08-29T22:12:28.715Z,97426.38
2022-08-29T22:14:49.196Z,97427.78
2022-08-29T22:16:51.850Z,97418.59
2022-08-29T22:18:54.807Z,97421.59
2022-08-29T22:20:58.269Z,97426.75
2022-08-29T22:23:02.268Z,97424.69
2022-08-29T22:25:05.841Z,97425.09
2022-08-29T22:27:09.212Z,97424.00
2022-08-29T22:29:13.627Z,97431.44
2022-08-29T22:31:16.680Z,97432.19
2022-08-29T22:33:19.428Z,97427.28
2022-08-29T22:35:23.367Z,97428.63
2022-08-29T22:37:26.061Z,97427.75
2022-08-29T22:39:30.071Z,97423.19
2022-08-29T22:41:33.014Z,97421.56
2022-08-29T22:43:35.622Z,97419.28
2022-08-29T22:45:38.224Z,97418.19
2022-08-29T22:47:42.826Z,97420.31
2022-08-29T22:49:45.832Z,97423.44
2022-08-29T22:51:48.981Z,97415.53
2022-08-29T22:54:06.088Z,97409.88
2022-08-29T22:56:10.537Z,97415.19
2022-08-29T22:58:13.185Z,97418.69
2022-08-29T23:00:21.533Z,97414.47
2022-08-29T23:02:24.599Z,97417.25
2022-08-29T23:04:27.238Z,97412.88
2022-08-29T23:06:30.707Z,97429.41
2022-08-29T23:08:33.379Z,97417.09
2022-08-29T23:10:36.311Z,97416.03
2022-08-29T23:12:40.553Z,97415.91
2022-08-29T23:14:46.374Z,97412.88
2022-08-29T23:16:49.567Z,97418.72
2022-08-29T23:18:52.585Z,97418.97
2022-08-29T23:20:55.203Z,97412.22
2022-08-29T23:22:58.391Z,97412.50
2022-08-29T23:25:01.197Z,97419.00
2022-08-29T23:27:03.912Z,97420.13
2022-08-29T23:29:07.962Z,97417.06
2022-08-29T23:31:10.614Z,97409.28
2022-08-29T23:33:13.318Z,97417.25
2022-08-29T23:35:15.900Z,97417.84
2022-08-29T23:37:18.569Z,97426.00
2022-08-29T23:39:21.220Z,97423.22
2022-08-29T23:41:24.017Z,97419.84
2022-08-29T23:43:27.810Z,97421.91
2022-08-29T23:45:32.523Z,97430.47
2022-08-29T23:47:36.094Z,97424.09
2022-08-29T23:49:38.757Z,97425.88
2022-08-29T23:51:41.368Z,97427.50
2022-08-29T23:53:45.675Z,97423.13
2022-08-29T23:55:48.522Z,97429.66
2022-08-29T23:57:51.120Z,97420.97
